createdAt,value
2019-04-14T00:00:18.596Z,0.00
2019-04-14T00:01:17.813Z,0.00
2019-04-14T00:02:18.526Z,0.00
2019-04-14T00:03:17.759Z,0.00
2019-04-14T00:04:18.202Z,0.00
2019-04-14T00:05:18.741Z,0.00
2019-04-14T00:06:18.059Z,0.00
2019-04-14T00:07:18.665Z,0.00
2019-04-14T00:08:17.765Z,0.00
2019-04-14T00:09:18.347Z,0.00
2019-04-14T00:10:18.235Z,0.00
2019-04-14T00:11:17.553Z,0.00
2019-04-14T00:12:18.660Z,0.00
2019-04-14T00:13:17.544Z,0.00
2019-04-14T00:14:18.535Z,0.00
2019-04-14T00:15:23.446Z,0.00
2019-04-14T00:16:18.431Z,0.00
2019-04-14T00:17:17.406Z,0.00
2019-04-14T00:18:18.561Z,0.00
2019-04-14T00:19:17.414Z,0.00
2019-04-14T00:20:18.496Z,0.00
2019-04-14T00:21:17.329Z,0.00
2019-04-14T00:22:18.322Z,0.00
2019-04-14T00:23:17.277Z,0.00
2019-04-14T00:24:18.360Z,0.00
2019-04-14T00:25:17.447Z,0.00
2019-04-14T00:26:18.352Z,0.00
2019-04-14T00:27:17.236Z,0.00
2019-04-14T00:28:17.128Z,0.00
2019-04-14T00:29:17.356Z,0.00
2019-04-14T00:30:17.069Z,0.00
2019-04-14T00:31:17.336Z,0.00
2019-04-14T00:32:18.234Z,0.00
2019-04-14T00:33:17.042Z,0.00
2019-04-14T00:34:18.070Z,0.00
2019-04-14T00:35:16.945Z,0.00
2019-04-14T00:36:17.594Z,0.00
2019-04-14T00:37:16.899Z,0.00
2019-04-14T00:38:17.423Z,0.00
2019-04-14T00:39:16.842Z,0.00
2019-04-14T00:40:17.240Z,0.00
2019-04-14T00:41:17.916Z,0.00
2019-04-14T00:42:17.016Z,0.00
2019-04-14T00:43:17.794Z,0.00
2019-04-14T00:44:16.821Z,0.00
2019-04-14T00:45:17.691Z,0.00
2019-04-14T00:46:16.834Z,0.00
2019-04-14T00:47:17.844Z,0.00
2019-04-14T00:48:19.381Z,0.00
2019-04-14T00:49:17.867Z,0.00
2019-04-14T00:50:16.803Z,0.00
2019-04-14T00:51:17.653Z,0.00
2019-04-14T00:52:16.888Z,0.00
2019-04-14T00:53:16.479Z,0.00
2019-04-14T00:54:17.498Z,0.00
2019-04-14T00:55:16.427Z,0.00
2019-04-14T00:56:17.227Z,0.00
2019-04-14T00:57:16.386Z,0.00
2019-04-14T00:58:17.070Z,0.00
2019-04-14T00:59:16.329Z,0.00
2019-04-14T01:00:18.788Z,0.00
2019-04-14T01:01:17.361Z,0.00
2019-04-14T01:02:16.672Z,0.00
2019-04-14T01:03:16.225Z,0.00
2019-04-14T01:04:16.535Z,0.00
2019-04-14T01:05:17.347Z,0.00
2019-04-14T01:06:16.425Z,0.00
2019-04-14T01:07:17.246Z,0.00
2019-04-14T01:08:16.359Z,0.00
2019-04-14T01:09:17.175Z,0.00
2019-04-14T01:10:17.011Z,0.00
2019-04-14T01:11:16.045Z,0.00
2019-04-14T01:12:17.053Z,0.00
2019-04-14T01:13:15.971Z,0.00
2019-04-14T01:14:16.948Z,0.00
2019-04-14T01:15:15.920Z,0.00
2019-04-14T01:16:20.178Z,0.00
2019-04-14T01:17:15.868Z,0.00
2019-04-14T01:18:16.847Z,0.00
2019-04-14T01:19:15.816Z,0.00
2019-04-14T01:20:16.712Z,0.00
2019-04-14T01:21:15.765Z,0.00
2019-04-14T01:22:16.289Z,0.00
2019-04-14T01:23:15.729Z,0.00
2019-04-14T01:24:16.371Z,0.00
2019-04-14T01:25:15.667Z,0.00
2019-04-14T01:26:16.001Z,0.00
2019-04-14T01:27:16.690Z,0.00
2019-04-14T01:28:15.877Z,0.00
2019-04-14T01:29:16.591Z,0.00
2019-04-14T01:30:15.539Z,0.00
2019-04-14T01:31:16.229Z,0.00
2019-04-14T01:32:15.492Z,0.00
2019-04-14T01:33:16.277Z,0.00
2019-04-14T01:34:15.441Z,0.00
2019-04-14T01:35:15.916Z,0.00
2019-04-14T01:36:15.388Z,0.00
2019-04-14T01:37:15.859Z,0.00
2019-04-14T01:38:15.347Z,0.00
2019-04-14T01:39:15.501Z,0.00
2019-04-14T01:40:16.352Z,0.00
2019-04-14T01:41:15.257Z,0.00
2019-04-14T01:42:15.901Z,0.00
2019-04-14T01:43:15.209Z,0.00
2019-04-14T01:44:15.628Z,0.00
2019-04-14T01:45:16.353Z,0.00
2019-04-14T01:46:20.970Z,0.00
2019-04-14T01:47:15.891Z,0.00
2019-04-14T01:48:15.078Z,0.00
2019-04-14T01:49:15.754Z,0.00
2019-04-14T01:50:15.037Z,0.00
2019-04-14T01:51:15.622Z,0.00
2019-04-14T01:52:14.986Z,0.00
2019-04-14T01:53:16.111Z,0.00
2019-04-14T01:54:14.986Z,0.00
2019-04-14T01:55:15.422Z,0.00
2019-04-14T01:56:14.882Z,0.00
2019-04-14T01:57:15.383Z,0.00
2019-04-14T01:58:14.821Z,0.00
2019-04-14T01:59:15.248Z,0.00
2019-04-14T02:00:14.770Z,0.00
2019-04-14T02:01:14.979Z,0.00
2019-04-14T02:02:14.718Z,0.00
2019-04-14T02:03:14.947Z,0.00
2019-04-14T02:04:14.669Z,0.00
2019-04-14T02:05:14.661Z,0.00
2019-04-14T02:06:15.680Z,0.00
2019-04-14T02:07:14.611Z,0.00
2019-04-14T02:08:15.510Z,0.00
2019-04-14T02:09:14.549Z,0.00
2019-04-14T02:10:15.139Z,0.00
2019-04-14T02:11:15.757Z,0.00
2019-04-14T02:12:14.920Z,0.00
2019-04-14T02:13:15.662Z,0.00
2019-04-14T02:14:14.757Z,0.00
2019-04-14T02:15:15.467Z,0.00
2019-04-14T02:16:24.040Z,0.00
2019-04-14T02:17:15.390Z,0.00
2019-04-14T02:18:14.418Z,0.00
2019-04-14T02:19:15.348Z,0.00
2019-04-14T02:20:14.281Z,0.00
2019-04-14T02:21:14.977Z,0.00
2019-04-14T02:22:14.208Z,0.00
2019-04-14T02:23:14.684Z,0.00
2019-04-14T02:24:14.157Z,0.00
2019-04-14T02:25:14.297Z,0.00
2019-04-14T02:26:15.398Z,0.00
2019-04-14T02:27:14.236Z,0.00
2019-04-14T02:28:14.051Z,0.00
2019-04-14T02:29:14.414Z,0.00
2019-04-14T02:30:19.548Z,0.00
2019-04-14T02:31:33.348Z,0.00
2019-04-14T02:32:45.363Z,0.00
2019-04-14T02:33:44.347Z,0.00
2019-04-14T02:34:41.753Z,0.00
2019-04-14T02:35:44.843Z,0.00
2019-04-14T02:36:40.250Z,0.00
2019-04-14T02:37:44.222Z,0.00
2019-04-14T02:39:48.359Z,0.00
2019-04-14T02:40:43.777Z,0.00
2019-04-14T02:41:49.251Z,0.00
2019-04-14T02:43:58.076Z,0.00
2019-04-14T02:45:02.173Z,0.00
2019-04-14T02:46:47.541Z,0.00
2019-04-14T02:47:58.624Z,0.00
2019-04-14T02:48:44.928Z,0.00
2019-04-14T02:50:39.687Z,0.00
2019-04-14T02:52:42.501Z,0.00
2019-04-14T02:53:44.210Z,0.00
2019-04-14T02:54:53.720Z,0.00
2019-04-14T02:55:42.264Z,0.00
2019-04-14T02:56:40.851Z,0.00
2019-04-14T02:57:40.005Z,0.00
2019-04-14T03:00:41.209Z,0.00
2019-04-14T03:01:48.341Z,0.00
2019-04-14T03:02:40.839Z,0.00
2019-04-14T03:03:41.570Z,0.00
2019-04-14T03:05:45.108Z,0.00
2019-04-14T03:07:41.973Z,0.00
2019-04-14T03:08:41.411Z,0.00
2019-04-14T03:11:38.091Z,0.00
2019-04-14T03:12:40.561Z,0.00
2019-04-14T03:13:45.128Z,0.00
2019-04-14T03:14:39.762Z,0.00
2019-04-14T03:15:44.831Z,0.00
2019-04-14T03:16:40.046Z,0.00
2019-04-14T03:17:38.282Z,0.00
2019-04-14T03:18:39.481Z,0.00
2019-04-14T03:19:48.217Z,0.00
2019-04-14T03:20:32.292Z,0.00
2019-04-14T03:21:34.644Z,0.00
2019-04-14T03:22:51.812Z,0.00
2019-04-14T03:23:40.617Z,0.00
2019-04-14T03:24:34.119Z,0.00
2019-04-14T03:25:30.094Z,0.00
2019-04-14T03:26:33.776Z,0.00
2019-04-14T03:27:54.648Z,0.00
2019-04-14T03:28:38.661Z,0.00
2019-04-14T03:29:37.150Z,0.00
2019-04-14T03:30:57.621Z,0.00
2019-04-14T03:34:06.223Z,0.00
2019-04-14T03:34:45.679Z,0.00
2019-04-14T03:37:44.837Z,0.00
2019-04-14T03:38:40.694Z,0.00
2019-04-14T03:39:41.979Z,0.00
2019-04-14T03:41:42.931Z,0.00
2019-04-14T03:42:49.691Z,0.00
2019-04-14T03:44:42.027Z,0.00
2019-04-14T03:45:42.891Z,0.00
2019-04-14T03:46:45.322Z,0.00
2019-04-14T03:47:31.270Z,0.00
2019-04-14T03:49:42.811Z,0.00
2019-04-14T03:50:37.086Z,0.00
2019-04-14T03:53:38.712Z,0.00
2019-04-14T03:54:36.104Z,0.00
2019-04-14T03:55:25.050Z,0.00
2019-04-14T03:56:14.366Z,0.00
2019-04-14T03:57:12.576Z,0.00
2019-04-14T03:58:13.521Z,0.00
2019-04-14T03:59:12.759Z,0.00
2019-04-14T04:00:11.787Z,0.00
2019-04-14T04:01:12.685Z,0.00
2019-04-14T04:02:11.844Z,0.00
2019-04-14T04:03:12.765Z,0.00
2019-04-14T04:04:11.866Z,0.00
2019-04-14T04:05:12.756Z,0.00
2019-04-14T04:06:11.820Z,0.00
2019-04-14T04:07:12.481Z,0.00
2019-04-14T04:08:11.538Z,0.00
2019-04-14T04:09:12.560Z,0.00
2019-04-14T04:10:11.522Z,0.00
2019-04-14T04:11:12.555Z,0.00
2019-04-14T04:12:11.775Z,0.00
2019-04-14T04:13:12.589Z,0.00
2019-04-14T04:14:11.743Z,0.00
2019-04-14T04:15:12.500Z,0.00
2019-04-14T04:16:11.533Z,0.00
2019-04-14T04:17:12.245Z,0.00
2019-04-14T04:18:11.357Z,0.00
2019-04-14T04:19:13.978Z,0.00
2019-04-14T04:20:11.162Z,0.00
2019-04-14T04:21:11.673Z,0.00
2019-04-14T04:22:11.112Z,0.00
2019-04-14T04:23:11.731Z,0.00
2019-04-14T04:24:11.058Z,0.00
2019-04-14T04:25:11.577Z,0.00
2019-04-14T04:26:11.007Z,0.00
2019-04-14T04:27:11.134Z,0.00
2019-04-14T04:28:10.959Z,0.00
2019-04-14T04:29:11.238Z,0.00
2019-04-14T04:30:10.904Z,0.00
2019-04-14T04:31:11.033Z,0.00
2019-04-14T04:32:12.130Z,0.00
2019-04-14T04:33:10.937Z,0.00
2019-04-14T04:34:11.849Z,0.00
2019-04-14T04:35:10.837Z,0.00
2019-04-14T04:36:11.752Z,0.00
2019-04-14T04:37:10.723Z,0.00
2019-04-14T04:38:11.794Z,0.00
2019-04-14T04:39:10.673Z,0.00
2019-04-14T04:40:11.465Z,0.00
2019-04-14T04:41:10.618Z,0.00
2019-04-14T04:42:11.294Z,0.00
2019-04-14T04:43:10.569Z,0.00
2019-04-14T04:44:11.586Z,0.00
2019-04-14T04:45:10.516Z,0.00
2019-04-14T04:46:11.309Z,0.00
2019-04-14T04:47:10.462Z,0.00
2019-04-14T04:48:11.229Z,0.00
2019-04-14T04:49:16.401Z,0.00
2019-04-14T04:50:10.771Z,0.00
2019-04-14T04:51:11.631Z,0.00
2019-04-14T04:52:12.638Z,0.00
2019-04-14T04:53:11.428Z,0.00
2019-04-14T04:54:10.366Z,0.00
2019-04-14T04:55:11.244Z,0.00
2019-04-14T04:56:10.230Z,0.00
2019-04-14T04:57:11.274Z,0.00
2019-04-14T04:58:10.176Z,0.00
2019-04-14T04:59:10.158Z,0.00
2019-04-14T05:00:11.307Z,0.00
2019-04-14T05:01:10.099Z,0.00
2019-04-14T05:02:11.176Z,0.00
2019-04-14T05:03:10.074Z,0.00
2019-04-14T05:04:11.087Z,0.00
2019-04-14T05:05:09.996Z,0.00
2019-04-14T05:06:11.161Z,0.00
2019-04-14T05:07:10.043Z,0.00
2019-04-14T05:08:10.857Z,0.00
2019-04-14T05:09:09.957Z,0.00
2019-04-14T05:10:10.955Z,0.00
2019-04-14T05:11:09.845Z,0.00
2019-04-14T05:12:10.919Z,0.00
2019-04-14T05:13:09.787Z,0.00
2019-04-14T05:14:10.858Z,0.00
2019-04-14T05:15:09.737Z,0.00
2019-04-14T05:16:10.673Z,0.00
2019-04-14T05:17:10.204Z,0.00
2019-04-14T05:18:09.656Z,0.00
2019-04-14T05:19:18.481Z,0.00
2019-04-14T05:20:09.682Z,0.00
2019-04-14T05:21:10.380Z,0.00
2019-04-14T05:22:09.552Z,0.00
2019-04-14T05:23:10.202Z,0.00
2019-04-14T05:24:09.501Z,0.00
2019-04-14T05:25:10.077Z,0.00
2019-04-14T05:26:09.456Z,0.00
2019-04-14T05:27:10.010Z,0.00
2019-04-14T05:28:09.404Z,0.00
2019-04-14T05:29:10.011Z,0.00
2019-04-14T05:30:09.364Z,0.00
2019-04-14T05:31:09.804Z,0.00
2019-04-14T05:32:09.296Z,0.00
2019-04-14T05:33:09.639Z,0.00
2019-04-14T05:34:09.242Z,0.00
2019-04-14T05:35:09.646Z,0.00
2019-04-14T05:36:09.189Z,0.00
2019-04-14T05:37:09.314Z,5.63
2019-04-14T05:38:10.405Z,5.63
2019-04-14T05:39:09.111Z,5.63
2019-04-14T05:40:10.171Z,5.63
2019-04-14T05:41:09.215Z,5.63
2019-04-14T05:42:15.668Z,5.63
2019-04-14T05:43:09.010Z,5.63
2019-04-14T05:44:09.988Z,5.63
2019-04-14T05:45:08.959Z,5.63
2019-04-14T05:46:09.874Z,5.63
2019-04-14T05:47:08.905Z,5.63
2019-04-14T05:48:09.732Z,5.63
2019-04-14T05:49:08.849Z,5.63
2019-04-14T05:50:09.526Z,5.63
2019-04-14T05:51:08.798Z,5.63
2019-04-14T05:52:09.835Z,5.63
2019-04-14T05:53:08.746Z,5.63
2019-04-14T05:54:09.928Z,5.63
2019-04-14T05:55:08.888Z,5.63
2019-04-14T05:56:09.884Z,5.63
2019-04-14T05:57:08.817Z,5.63
2019-04-14T05:58:08.618Z,5.63
2019-04-14T05:59:08.869Z,5.63
2019-04-14T06:00:08.564Z,5.63
2019-04-14T06:01:08.989Z,5.63
2019-04-14T06:02:09.349Z,5.63
2019-04-14T06:03:08.482Z,5.63
2019-04-14T06:04:09.367Z,5.63
2019-04-14T06:05:09.164Z,5.63
2019-04-14T06:06:09.015Z,5.63
2019-04-14T06:07:08.383Z,5.63
2019-04-14T06:08:08.360Z,5.63
2019-04-14T06:09:08.327Z,5.63
2019-04-14T06:10:08.301Z,5.63
2019-04-14T06:11:08.279Z,5.63
2019-04-14T06:12:08.254Z,5.63
2019-04-14T06:13:08.227Z,5.63
2019-04-14T06:14:08.204Z,5.63
2019-04-14T06:15:08.171Z,5.63
2019-04-14T06:16:08.146Z,5.63
2019-04-14T06:17:08.127Z,5.63
2019-04-14T06:18:08.123Z,5.63
2019-04-14T06:19:08.068Z,5.63
2019-04-14T06:20:08.052Z,5.63
2019-04-14T06:21:08.017Z,5.63
2019-04-14T06:22:07.996Z,5.63
2019-04-14T06:23:07.963Z,5.63
2019-04-14T06:24:07.938Z,5.63
2019-04-14T06:25:07.927Z,5.63
2019-04-14T06:26:07.892Z,5.63
2019-04-14T06:27:07.862Z,5.63
2019-04-14T06:28:07.844Z,5.63
2019-04-14T06:29:07.815Z,5.63
2019-04-14T06:30:08.110Z,5.63
2019-04-14T06:31:09.028Z,5.63
2019-04-14T06:32:07.741Z,5.63
2019-04-14T06:33:07.712Z,11.25
2019-04-14T06:34:07.702Z,11.25
2019-04-14T06:35:07.651Z,11.25
2019-04-14T06:36:07.632Z,11.25
2019-04-14T06:37:07.916Z,11.25
2019-04-14T06:38:07.573Z,11.25
2019-04-14T06:39:07.551Z,11.25
2019-04-14T06:40:07.523Z,11.25
2019-04-14T06:41:07.504Z,11.25
2019-04-14T06:42:07.471Z,11.25
2019-04-14T06:43:07.768Z,11.25
2019-04-14T06:44:07.418Z,11.25
2019-04-14T06:45:07.396Z,11.25
2019-04-14T06:46:07.368Z,11.25
2019-04-14T06:47:07.340Z,11.25
2019-04-14T06:48:07.314Z,11.25
2019-04-14T06:49:07.291Z,11.25
2019-04-14T06:50:07.278Z,11.25
2019-04-14T06:51:07.248Z,11.25
2019-04-14T06:52:07.228Z,11.25
2019-04-14T06:53:07.185Z,11.25
2019-04-14T06:54:07.201Z,11.25
2019-04-14T06:55:07.133Z,11.25
2019-04-14T06:56:07.110Z,16.88
2019-04-14T06:57:07.081Z,16.88
2019-04-14T06:58:07.059Z,16.88
2019-04-14T06:59:07.030Z,16.88
2019-04-14T07:00:07.003Z,16.88
2019-04-14T07:01:06.977Z,16.88
2019-04-14T07:02:08.626Z,16.88
2019-04-14T07:03:06.928Z,16.88
2019-04-14T07:04:06.902Z,16.88
2019-04-14T07:05:06.879Z,16.88
2019-04-14T07:06:06.852Z,16.88
2019-04-14T07:07:06.825Z,16.88
2019-04-14T07:08:07.007Z,16.88
2019-04-14T07:09:06.776Z,16.88
2019-04-14T07:10:06.745Z,16.88
2019-04-14T07:11:06.721Z,16.88
2019-04-14T07:12:06.772Z,16.88
2019-04-14T07:13:06.669Z,16.88
2019-04-14T07:14:06.645Z,16.88
2019-04-14T07:15:06.619Z,16.88
2019-04-14T07:16:06.592Z,16.88
2019-04-14T07:17:06.567Z,16.88
2019-04-14T07:18:06.553Z,22.50
2019-04-14T07:19:06.514Z,16.88
2019-04-14T07:20:06.487Z,16.88
2019-04-14T07:21:06.460Z,16.88
2019-04-14T07:22:06.434Z,22.50
2019-04-14T07:23:06.408Z,22.50
2019-04-14T07:24:06.391Z,22.50
2019-04-14T07:25:06.359Z,22.50
2019-04-14T07:26:06.355Z,22.50
2019-04-14T07:27:06.308Z,22.50
2019-04-14T07:28:06.600Z,22.50
2019-04-14T07:29:06.259Z,22.50
2019-04-14T07:30:06.239Z,28.13
2019-04-14T07:31:06.204Z,28.13
2019-04-14T07:32:06.178Z,28.13
2019-04-14T07:33:06.161Z,28.13
2019-04-14T07:34:06.130Z,28.13
2019-04-14T07:35:06.109Z,28.13
2019-04-14T07:36:06.088Z,28.13
2019-04-14T07:37:06.052Z,28.13
2019-04-14T07:38:06.025Z,28.13
2019-04-14T07:39:06.005Z,28.13
2019-04-14T07:40:05.973Z,28.13
2019-04-14T07:41:05.950Z,28.13
2019-04-14T07:42:05.924Z,33.75
2019-04-14T07:43:05.923Z,33.75
2019-04-14T07:44:05.872Z,33.75
2019-04-14T07:45:05.854Z,33.75
2019-04-14T07:46:05.827Z,33.75
2019-04-14T07:47:05.793Z,33.75
2019-04-14T07:48:05.772Z,33.75
2019-04-14T07:49:05.752Z,33.75
2019-04-14T07:50:14.499Z,33.75
2019-04-14T07:51:05.696Z,33.75
2019-04-14T07:52:05.671Z,33.75
2019-04-14T07:53:05.646Z,33.75
2019-04-14T07:54:05.625Z,33.75
2019-04-14T07:55:05.599Z,33.75
2019-04-14T07:56:05.570Z,33.75
2019-04-14T07:57:05.553Z,33.75
2019-04-14T07:58:05.516Z,33.75
2019-04-14T07:59:05.495Z,33.75
2019-04-14T08:00:05.470Z,33.75
2019-04-14T08:01:05.445Z,33.75
2019-04-14T08:02:05.423Z,39.38
2019-04-14T08:03:05.400Z,39.38
2019-04-14T08:04:05.374Z,39.38
2019-04-14T08:05:05.353Z,39.38
2019-04-14T08:06:05.322Z,39.38
2019-04-14T08:07:05.300Z,39.38
2019-04-14T08:08:05.270Z,39.38
2019-04-14T08:09:05.241Z,39.38
2019-04-14T08:10:05.215Z,39.38
2019-04-14T08:11:05.215Z,39.38
2019-04-14T08:12:05.165Z,39.38
2019-04-14T08:13:05.139Z,45.00
2019-04-14T08:14:05.131Z,45.00
2019-04-14T08:15:05.093Z,45.00
2019-04-14T08:16:05.066Z,45.00
2019-04-14T08:17:05.043Z,45.00
2019-04-14T08:18:05.018Z,45.00
2019-04-14T08:19:04.992Z,45.00
2019-04-14T08:20:04.967Z,45.00
2019-04-14T08:21:04.943Z,45.00
2019-04-14T08:22:04.922Z,45.00
2019-04-14T08:23:04.891Z,45.00
2019-04-14T08:24:04.871Z,45.00
2019-04-14T08:25:04.866Z,50.63
2019-04-14T08:26:04.816Z,50.63
2019-04-14T08:27:04.796Z,50.63
2019-04-14T08:28:05.311Z,50.63
2019-04-14T08:29:05.085Z,50.63
2019-04-14T08:30:04.720Z,50.63
2019-04-14T08:31:04.702Z,50.63
2019-04-14T08:32:04.672Z,50.63
2019-04-14T08:33:05.383Z,50.63
2019-04-14T08:34:04.662Z,50.63
2019-04-14T08:35:05.340Z,50.63
2019-04-14T08:36:07.938Z,50.63
2019-04-14T08:38:04.867Z,50.63
2019-04-14T08:39:04.836Z,50.63
2019-04-14T08:40:07.532Z,50.63
2019-04-14T08:42:04.626Z,50.63
2019-04-14T08:46:04.332Z,50.63
2019-04-14T08:47:04.371Z,50.63
2019-04-14T08:48:04.282Z,50.63
2019-04-14T08:49:04.584Z,50.63
2019-04-14T08:50:04.549Z,50.63
2019-04-14T08:51:04.533Z,50.63
2019-04-14T08:52:04.486Z,45.00
2019-04-14T08:53:04.182Z,50.63
2019-04-14T08:54:04.654Z,50.63
2019-04-14T08:55:04.116Z,50.63
2019-04-14T08:56:04.604Z,50.63
2019-04-14T08:57:04.387Z,50.63
2019-04-14T08:58:04.366Z,50.63
2019-04-14T08:59:04.029Z,50.63
2019-04-14T09:00:04.003Z,50.63
2019-04-14T09:01:04.292Z,50.63
2019-04-14T09:02:04.473Z,50.63
2019-04-14T09:03:03.948Z,50.63
2019-04-14T09:04:04.217Z,50.63
2019-04-14T09:05:04.809Z,50.63
2019-04-14T09:06:03.857Z,50.63
2019-04-14T09:07:04.154Z,50.63
2019-04-14T09:09:03.774Z,50.63
2019-04-14T09:10:04.492Z,50.63
2019-04-14T09:12:14.901Z,50.63
2019-04-14T09:13:03.922Z,56.25
2019-04-14T09:15:03.954Z,56.25
2019-04-14T09:16:03.615Z,56.25
2019-04-14T09:17:03.584Z,56.25
2019-04-14T09:18:03.574Z,50.63
2019-04-14T09:19:07.904Z,50.63
2019-04-14T09:20:03.842Z,56.25
2019-04-14T09:21:03.496Z,56.25
2019-04-14T09:22:03.467Z,56.25
2019-04-14T09:23:03.439Z,56.25
2019-04-14T09:24:03.430Z,56.25
2019-04-14T09:25:03.397Z,56.25
2019-04-14T09:26:03.369Z,56.25
2019-04-14T09:27:03.349Z,56.25
2019-04-14T09:28:03.321Z,56.25
2019-04-14T09:29:03.317Z,56.25
2019-04-14T09:30:03.277Z,56.25
2019-04-14T09:31:03.258Z,56.25
2019-04-14T09:32:03.230Z,56.25
2019-04-14T09:33:03.211Z,56.25
2019-04-14T09:34:03.181Z,56.25
2019-04-14T09:35:03.161Z,56.25
2019-04-14T09:36:03.134Z,56.25
2019-04-14T09:37:03.113Z,56.25
2019-04-14T09:38:03.098Z,56.25
2019-04-14T09:39:03.073Z,61.88
2019-04-14T09:40:03.047Z,61.88
2019-04-14T09:41:03.019Z,61.88
2019-04-14T09:42:02.993Z,61.88
2019-04-14T09:43:02.980Z,61.88
2019-04-14T09:44:02.963Z,61.88
2019-04-14T09:45:02.928Z,61.88
2019-04-14T09:46:02.899Z,61.88
2019-04-14T09:47:02.874Z,61.88
2019-04-14T09:48:02.864Z,61.88
2019-04-14T09:49:02.828Z,61.88
2019-04-14T09:50:02.819Z,61.88
2019-04-14T09:51:04.933Z,61.88
2019-04-14T09:52:02.762Z,61.88
2019-04-14T09:53:02.735Z,61.88
2019-04-14T09:54:02.715Z,61.88
2019-04-14T09:55:02.715Z,61.88
2019-04-14T09:56:02.678Z,61.88
2019-04-14T09:57:02.653Z,61.88
2019-04-14T09:58:02.625Z,61.88
2019-04-14T09:59:02.606Z,61.88
2019-04-14T10:00:02.574Z,61.88
2019-04-14T10:01:02.550Z,61.88
2019-04-14T10:02:02.526Z,61.88
2019-04-14T10:03:02.501Z,56.25
2019-04-14T10:04:02.535Z,61.88
2019-04-14T10:05:02.465Z,22.50
2019-04-14T10:06:02.437Z,61.88
2019-04-14T10:07:02.422Z,56.25
2019-04-14T10:08:02.385Z,22.50
2019-04-14T10:09:02.362Z,67.50
2019-04-14T10:10:02.348Z,67.50
2019-04-14T10:11:02.317Z,67.50
2019-04-14T10:12:02.311Z,67.50
2019-04-14T10:13:02.271Z,67.50
2019-04-14T10:14:02.253Z,67.50
2019-04-14T10:15:02.222Z,61.88
2019-04-14T10:16:02.204Z,61.88
2019-04-14T10:17:02.178Z,61.88
2019-04-14T10:18:02.154Z,56.25
2019-04-14T10:19:02.140Z,61.88
2019-04-14T10:20:02.113Z,61.88
2019-04-14T10:21:02.083Z,28.13
2019-04-14T10:22:02.086Z,28.13
2019-04-14T10:23:02.050Z,67.50
2019-04-14T10:24:02.017Z,61.88
2019-04-14T10:25:01.997Z,56.25
2019-04-14T10:26:01.970Z,61.88
2019-04-14T10:27:01.946Z,61.88
2019-04-14T10:28:01.926Z,39.38
2019-04-14T10:29:01.902Z,28.13
2019-04-14T10:30:02.210Z,39.38
2019-04-14T10:31:01.853Z,45.00
2019-04-14T10:32:01.830Z,61.88
2019-04-14T10:33:01.808Z,61.88
2019-04-14T10:34:01.786Z,67.50
2019-04-14T10:35:01.770Z,56.25
2019-04-14T10:36:01.748Z,56.25
2019-04-14T10:37:01.723Z,61.88
2019-04-14T10:38:01.705Z,56.25
2019-04-14T10:39:01.669Z,67.50
2019-04-14T10:40:01.651Z,67.50
2019-04-14T10:41:01.625Z,67.50
2019-04-14T10:42:01.609Z,61.88
2019-04-14T10:43:01.578Z,28.13
2019-04-14T10:44:01.559Z,39.38
2019-04-14T10:45:01.535Z,28.13
2019-04-14T10:46:01.518Z,67.50
2019-04-14T10:47:01.484Z,67.50
2019-04-14T10:48:01.470Z,67.50
2019-04-14T10:49:01.439Z,67.50
2019-04-14T10:50:01.423Z,61.88
2019-04-14T10:51:01.413Z,67.50
2019-04-14T10:52:01.369Z,22.50
2019-04-14T10:53:01.356Z,22.50
2019-04-14T10:54:01.325Z,22.50
2019-04-14T10:55:01.324Z,67.50
2019-04-14T10:56:01.277Z,39.38
2019-04-14T10:57:01.391Z,28.13
2019-04-14T10:58:01.241Z,22.50
2019-04-14T10:59:01.221Z,22.50
2019-04-14T11:00:01.188Z,22.50
2019-04-14T11:01:01.174Z,28.13
2019-04-14T11:02:01.150Z,50.63
2019-04-14T11:03:01.121Z,61.88
2019-04-14T11:04:01.107Z,39.38
2019-04-14T11:05:01.079Z,67.50
2019-04-14T11:06:01.048Z,50.63
2019-04-14T11:07:01.038Z,22.50
2019-04-14T11:08:01.004Z,61.88
2019-04-14T11:09:00.985Z,22.50
2019-04-14T11:10:00.959Z,67.50
2019-04-14T11:11:00.950Z,67.50
2019-04-14T11:12:00.919Z,56.25
2019-04-14T11:13:00.902Z,28.13
2019-04-14T11:14:00.884Z,67.50
2019-04-14T11:15:00.859Z,67.50
2019-04-14T11:16:00.834Z,28.13
2019-04-14T11:17:00.801Z,22.50
2019-04-14T11:18:00.779Z,22.50
2019-04-14T11:19:00.759Z,28.13
2019-04-14T11:20:00.735Z,33.75
2019-04-14T11:21:00.713Z,28.13
2019-04-14T11:22:00.690Z,28.13
2019-04-14T11:23:03.389Z,67.50
2019-04-14T11:24:00.643Z,67.50
2019-04-14T11:25:00.620Z,67.50
2019-04-14T11:26:00.599Z,73.13
2019-04-14T11:27:00.582Z,73.13
2019-04-14T11:28:00.564Z,73.13
2019-04-14T11:29:00.535Z,73.13
2019-04-14T11:30:00.505Z,73.13
2019-04-14T11:31:00.483Z,73.13
2019-04-14T11:32:00.458Z,73.13
2019-04-14T11:33:00.439Z,28.13
2019-04-14T11:34:00.420Z,28.13
2019-04-14T11:35:00.396Z,28.13
2019-04-14T11:36:00.383Z,50.63
2019-04-14T11:37:00.352Z,28.13
2019-04-14T11:38:00.328Z,61.88
2019-04-14T11:39:00.311Z,73.13
2019-04-14T11:40:00.292Z,73.13
2019-04-14T11:41:00.264Z,73.13
2019-04-14T11:42:00.237Z,73.13
2019-04-14T11:43:00.217Z,33.75
2019-04-14T11:44:00.202Z,28.13
2019-04-14T11:45:00.194Z,33.75
2019-04-14T11:46:03.209Z,73.13
2019-04-14T11:47:00.145Z,67.50
2019-04-14T11:48:00.109Z,73.13
2019-04-14T11:49:00.081Z,28.13
2019-04-14T11:50:00.056Z,67.50
2019-04-14T11:51:00.037Z,73.13
2019-04-14T11:52:00.015Z,78.75
2019-04-14T11:52:59.992Z,39.38
2019-04-14T11:53:59.977Z,45.00
2019-04-14T11:54:59.953Z,39.38
2019-04-14T11:55:59.924Z,45.00
2019-04-14T11:56:59.902Z,28.13
2019-04-14T11:57:59.887Z,22.50
2019-04-14T11:58:59.877Z,22.50
2019-04-14T11:59:59.835Z,50.63
2019-04-14T12:00:59.819Z,56.25
2019-04-14T12:01:59.789Z,67.50
2019-04-14T12:02:59.770Z,61.88
2019-04-14T12:03:59.762Z,28.13
2019-04-14T12:04:59.719Z,28.13
2019-04-14T12:05:59.696Z,61.88
2019-04-14T12:06:59.676Z,33.75
2019-04-14T12:07:59.652Z,22.50
2019-04-14T12:08:59.632Z,22.50
2019-04-14T12:09:59.614Z,22.50
2019-04-14T12:10:59.602Z,22.50
2019-04-14T12:11:59.570Z,22.50
2019-04-14T12:12:59.538Z,22.50
2019-04-14T12:13:59.523Z,22.50
2019-04-14T12:14:59.494Z,22.50
2019-04-14T12:15:59.477Z,22.50
2019-04-14T12:16:59.450Z,67.50
2019-04-14T12:17:59.422Z,28.13
2019-04-14T12:18:59.408Z,28.13
2019-04-14T12:19:59.378Z,28.13
2019-04-14T12:20:59.357Z,73.13
2019-04-14T12:22:08.154Z,73.13
2019-04-14T12:22:59.310Z,73.13
2019-04-14T12:23:59.289Z,28.13
2019-04-14T12:24:59.266Z,22.50
2019-04-14T12:26:05.029Z,22.50
2019-04-14T12:26:59.222Z,22.50
2019-04-14T12:28:00.323Z,22.50
2019-04-14T12:29:01.593Z,22.50
2019-04-14T12:29:59.154Z,22.50
2019-04-14T12:30:59.788Z,22.50
2019-04-14T12:31:59.627Z,28.13
2019-04-14T12:32:59.107Z,61.88
2019-04-14T12:33:59.071Z,39.38
2019-04-14T12:34:59.040Z,73.13
2019-04-14T12:35:59.021Z,73.13
2019-04-14T12:36:58.993Z,67.50
2019-04-14T12:37:58.971Z,28.13
2019-04-14T12:38:58.946Z,22.50
2019-04-14T12:39:58.925Z,22.50
2019-04-14T12:41:00.519Z,22.50
2019-04-14T12:41:58.882Z,22.50
2019-04-14T12:42:58.866Z,22.50
2019-04-14T12:43:58.851Z,22.50
2019-04-14T12:44:58.814Z,22.50
2019-04-14T12:45:58.806Z,22.50
2019-04-14T12:46:58.767Z,22.50
2019-04-14T12:47:58.744Z,22.50
2019-04-14T12:48:58.726Z,22.50
2019-04-14T12:49:58.699Z,22.50
2019-04-14T12:50:58.680Z,22.50
2019-04-14T12:51:58.666Z,22.50
2019-04-14T12:52:58.630Z,22.50
2019-04-14T12:53:58.608Z,22.50
2019-04-14T12:54:58.592Z,22.50
2019-04-14T12:55:58.570Z,22.50
2019-04-14T12:56:58.542Z,22.50
2019-04-14T12:57:58.525Z,22.50
2019-04-14T12:58:58.518Z,22.50
2019-04-14T12:59:58.484Z,22.50
2019-04-14T13:00:58.456Z,22.50
2019-04-14T13:01:58.429Z,61.88
2019-04-14T13:02:58.414Z,56.25
2019-04-14T13:03:58.384Z,28.13
2019-04-14T13:04:58.365Z,22.50
2019-04-14T13:05:58.344Z,22.50
2019-04-14T13:06:58.315Z,22.50
2019-04-14T13:07:58.311Z,22.50
2019-04-14T13:08:58.270Z,22.50
2019-04-14T13:09:58.261Z,28.13
2019-04-14T13:10:58.224Z,39.38
2019-04-14T13:11:58.199Z,39.38
2019-04-14T13:12:58.182Z,45.00
2019-04-14T13:13:58.154Z,39.38
2019-04-14T13:14:58.134Z,39.38
2019-04-14T13:15:58.150Z,56.25
2019-04-14T13:16:58.084Z,39.38
2019-04-14T13:17:58.069Z,45.00
2019-04-14T13:18:58.038Z,39.38
2019-04-14T13:19:58.024Z,67.50
2019-04-14T13:20:57.997Z,67.50
2019-04-14T13:21:57.976Z,73.13
2019-04-14T13:22:57.947Z,73.13
2019-04-14T13:23:57.923Z,28.13
2019-04-14T13:24:57.916Z,22.50
2019-04-14T13:25:57.885Z,22.50
2019-04-14T13:26:57.860Z,22.50
2019-04-14T13:27:57.855Z,22.50
2019-04-14T13:28:57.822Z,28.13
2019-04-14T13:29:57.796Z,67.50
2019-04-14T13:30:57.765Z,73.13
2019-04-14T13:31:57.744Z,73.13